createdAt,value
2023-03-10T00:00:31.228Z,98889.74
2023-03-10T00:03:22.194Z,98885.25
2023-03-10T00:06:09.785Z,98881.37
2023-03-10T00:08:55.788Z,98867.27
2023-03-10T00:11:41.431Z,98867.81
2023-03-10T00:14:26.688Z,98868.73
2023-03-10T00:17:11.571Z,98870.27
2023-03-10T00:19:56.907Z,98869.71
2023-03-10T00:22:42.082Z,98871.55
2023-03-10T00:25:27.213Z,98865.06
2023-03-10T00:28:12.444Z,98853.48
2023-03-10T00:31:03.664Z,98844.77
2023-03-10T00:33:49.648Z,98837.64
2023-03-10T00:36:34.636Z,98826.55
2023-03-10T00:39:20.586Z,98821.17
2023-03-10T00:42:06.354Z,98819.48
2023-03-10T00:44:51.692Z,98817.61
2023-03-10T00:47:36.760Z,98815.98
2023-03-10T00:50:23.029Z,98820.65
2023-03-10T00:53:08.089Z,98822.19
2023-03-10T00:55:58.794Z,98811.24
2023-03-10T00:58:45.318Z,98799.02
2023-03-10T01:01:36.889Z,98800.27
2023-03-10T01:04:21.908Z,98799.59
2023-03-10T01:07:07.032Z,98800.86
2023-03-10T01:09:52.229Z,98802.23
2023-03-10T01:12:37.072Z,98792.27
2023-03-10T01:15:23.591Z,98798.08
2023-03-10T01:18:08.686Z,98802.39
2023-03-10T01:20:53.959Z,98799.47
2023-03-10T01:23:39.057Z,98794.11
2023-03-10T01:26:24.331Z,98794.44
2023-03-10T01:29:09.276Z,98791.16
2023-03-10T01:31:54.359Z,98782.51
2023-03-10T01:34:39.586Z,98773.16
2023-03-10T01:37:24.878Z,98768.73
2023-03-10T01:40:15.635Z,98765.94
2023-03-10T01:43:19.061Z,98760.04
2023-03-10T01:46:04.217Z,98756.42
2023-03-10T01:48:49.447Z,98748.70
2023-03-10T01:51:36.848Z,98749.21
2023-03-10T01:54:31.700Z,98748.21
2023-03-10T01:57:22.714Z,98741.52
2023-03-10T02:00:11.746Z,98741.82
2023-03-10T02:03:19.912Z,98736.60
2023-03-10T02:06:11.315Z,98732.01
2023-03-10T02:08:59.355Z,98719.55
2023-03-10T02:11:46.659Z,98710.98
2023-03-10T02:14:35.062Z,98710.71
2023-03-10T02:17:23.543Z,98703.52
2023-03-10T02:20:19.740Z,98698.13
2023-03-10T02:23:04.859Z,98699.53
2023-03-10T02:26:04.599Z,98691.94
2023-03-10T02:28:52.056Z,98676.92
2023-03-10T02:31:37.527Z,98658.14
2023-03-10T02:34:25.593Z,98661.73
2023-03-10T02:37:23.111Z,98663.05
2023-03-10T02:40:33.166Z,98671.10
2023-03-10T02:43:21.822Z,98656.14
2023-03-10T02:46:07.992Z,98650.95
2023-03-10T02:48:53.909Z,98656.61
2023-03-10T02:51:41.972Z,98651.20
2023-03-10T02:54:27.847Z,98643.87
2023-03-10T02:57:13.029Z,98640.41
2023-03-10T02:59:58.178Z,98633.29
2023-03-10T03:02:43.088Z,98634.14
2023-03-10T03:05:28.434Z,98633.52
2023-03-10T03:08:13.811Z,98627.98
2023-03-10T03:10:59.711Z,98616.92
2023-03-10T03:13:45.029Z,98611.48
2023-03-10T03:16:30.316Z,98610.44
2023-03-10T03:19:15.664Z,98605.65
2023-03-10T03:22:00.956Z,98592.60
2023-03-10T03:24:46.082Z,98591.20
2023-03-10T03:27:31.280Z,98581.54
2023-03-10T03:30:22.897Z,98567.60
2023-03-10T03:33:08.425Z,98552.48
2023-03-10T03:35:53.758Z,98539.97
2023-03-10T03:38:38.927Z,98537.15
2023-03-10T03:41:24.063Z,98539.25
2023-03-10T03:44:09.445Z,98539.03
2023-03-10T03:46:54.810Z,98541.02
2023-03-10T03:49:40.158Z,98531.31
2023-03-10T03:52:25.365Z,98521.80
2023-03-10T03:55:12.786Z,98518.44
2023-03-10T03:57:58.084Z,98513.27
2023-03-10T04:00:43.243Z,98511.33
2023-03-10T04:03:28.251Z,98503.14
2023-03-10T04:06:13.471Z,98505.11
2023-03-10T04:08:58.391Z,98490.67
2023-03-10T04:11:43.711Z,98484.23
2023-03-10T04:14:28.874Z,98482.82
2023-03-10T04:17:14.160Z,98478.41
2023-03-10T04:20:07.069Z,98464.23
2023-03-10T04:22:52.707Z,98455.30
2023-03-10T04:25:40.865Z,98446.86
2023-03-10T04:28:25.738Z,98439.62
2023-03-10T04:31:17.119Z,98439.91
2023-03-10T04:34:02.609Z,98439.73
2023-03-10T04:36:47.640Z,98439.27
2023-03-10T04:39:35.072Z,98446.23
2023-03-10T04:42:20.540Z,98459.06
2023-03-10T04:45:06.378Z,98457.73
2023-03-10T04:47:51.835Z,98449.87
2023-03-10T04:50:36.905Z,98449.54
2023-03-10T04:53:40.710Z,98447.11
2023-03-10T04:56:27.597Z,98434.35
2023-03-10T04:59:14.130Z,98424.58
2023-03-10T05:02:01.082Z,98425.80
2023-03-10T05:04:48.085Z,98413.77
2023-03-10T05:07:34.859Z,98406.41
2023-03-10T05:10:21.422Z,98393.34
2023-03-10T05:13:12.271Z,98385.15
2023-03-10T05:15:58.872Z,98394.26
2023-03-10T05:18:46.886Z,98386.41
2023-03-10T05:21:36.043Z,98376.14
2023-03-10T05:24:22.484Z,98368.64
2023-03-10T05:27:10.548Z,98359.53
2023-03-10T05:29:57.405Z,98348.95
2023-03-10T05:32:44.882Z,98336.24
2023-03-10T05:35:31.494Z,98333.55
2023-03-10T05:38:19.448Z,98345.10
2023-03-10T05:41:11.626Z,98366.33
2023-03-10T05:43:58.759Z,98363.72
2023-03-10T05:46:45.291Z,98355.63
2023-03-10T05:49:32.790Z,98344.61
2023-03-10T05:52:19.023Z,98338.60
2023-03-10T05:55:07.390Z,98331.08
2023-03-10T05:57:53.933Z,98324.89
2023-03-10T06:00:40.278Z,98321.92
2023-03-10T06:03:28.926Z,98327.81
2023-03-10T06:06:22.368Z,98335.44
2023-03-10T06:09:08.925Z,98346.09
2023-03-10T06:11:56.341Z,98337.64
2023-03-10T06:14:42.846Z,98332.80
2023-03-10T06:17:29.927Z,98328.60
2023-03-10T06:20:16.592Z,98322.52
2023-03-10T06:23:03.149Z,98312.91
2023-03-10T06:26:06.086Z,98307.83
2023-03-10T06:28:52.758Z,98303.90
2023-03-10T06:31:40.775Z,98299.52
2023-03-10T06:34:27.144Z,98309.46
2023-03-10T06:37:13.516Z,98314.20
2023-03-10T06:40:00.551Z,98313.44
2023-03-10T06:42:46.825Z,98316.84
2023-03-10T06:45:33.208Z,98305.89
2023-03-10T06:48:20.137Z,98298.27
2023-03-10T06:51:09.142Z,98296.52
2023-03-10T06:53:57.579Z,98289.55
2023-03-10T06:56:44.176Z,98287.29
2023-03-10T06:59:33.176Z,98280.62
2023-03-10T07:02:19.922Z,98284.06
2023-03-10T07:11:40.519Z,98263.27
2023-03-10T07:14:26.936Z,98259.15
2023-03-10T07:17:13.534Z,98255.86
2023-03-10T07:20:00.180Z,98255.30
2023-03-10T07:22:46.987Z,98247.81
2023-03-10T07:25:37.620Z,98250.30
2023-03-10T07:28:25.757Z,98249.04
2023-03-10T07:31:14.161Z,98240.09
2023-03-10T07:34:02.118Z,98228.56
2023-03-10T07:36:48.621Z,98233.52
2023-03-10T07:39:35.205Z,98235.00
2023-03-10T07:42:21.707Z,98238.83
2023-03-10T07:45:09.624Z,98239.77
2023-03-10T07:48:00.206Z,98234.45
2023-03-10T07:50:58.501Z,98230.00
2023-03-10T07:53:45.283Z,98219.33
2023-03-10T07:56:31.987Z,98211.14
2023-03-10T07:59:18.997Z,98205.09
2023-03-10T08:02:05.771Z,98205.83
2023-03-10T08:04:52.635Z,98210.64
2023-03-10T08:07:39.249Z,98207.95
2023-03-10T08:10:26.906Z,98202.75
2023-03-10T08:13:14.686Z,98190.55
2023-03-10T08:16:02.789Z,98176.60
2023-03-10T08:18:52.320Z,98180.79
2023-03-10T08:21:39.043Z,98178.77
2023-03-10T08:24:27.374Z,98179.41
2023-03-10T08:27:13.830Z,98187.23
2023-03-10T08:30:00.668Z,98182.30
2023-03-10T08:32:47.415Z,98182.70
2023-03-10T08:35:38.334Z,98183.30
2023-03-10T08:38:25.478Z,98174.61
2023-03-10T08:41:17.151Z,98167.39
2023-03-10T08:44:05.292Z,98165.10
2023-03-10T08:46:52.199Z,98161.81
2023-03-10T08:49:38.481Z,98160.84
2023-03-10T08:52:25.195Z,98147.78
2023-03-10T08:55:11.933Z,98147.44
2023-03-10T08:58:00.308Z,98155.63
2023-03-10T09:00:46.724Z,98153.80
2023-03-10T09:03:37.599Z,98167.13
2023-03-10T09:06:25.166Z,98155.56
2023-03-10T09:09:12.604Z,98151.73
2023-03-10T09:11:59.429Z,98144.63
2023-03-10T09:14:48.156Z,98140.16
2023-03-10T09:17:34.379Z,98137.20
2023-03-10T09:20:28.902Z,98122.77
2023-03-10T09:23:16.636Z,98113.07
2023-03-10T09:26:03.457Z,98122.44
2023-03-10T09:28:51.110Z,98120.26
2023-03-10T09:31:39.615Z,98117.16
2023-03-10T09:34:30.093Z,98113.23
2023-03-10T09:37:16.955Z,98111.58
2023-03-10T09:40:06.438Z,98103.17
2023-03-10T09:42:56.029Z,98104.09
2023-03-10T09:45:46.166Z,98092.10
2023-03-10T09:48:51.736Z,98085.51
2023-03-10T09:51:44.920Z,98088.51
2023-03-10T09:54:54.534Z,98099.35
2023-03-10T09:57:41.998Z,98106.75
2023-03-10T10:00:37.081Z,98104.17
2023-03-10T10:03:46.390Z,98101.13
2023-03-10T10:06:43.052Z,98092.77
2023-03-10T10:10:06.310Z,98090.17
2023-03-10T10:12:54.757Z,98086.45
2023-03-10T10:15:48.100Z,98075.27
2023-03-10T10:18:48.716Z,98062.30
2023-03-10T10:21:43.315Z,98050.73
2023-03-10T10:24:30.865Z,98045.80
2023-03-10T10:27:18.737Z,98056.27
2023-03-10T10:30:31.367Z,98047.56
2023-03-10T10:33:18.215Z,98042.77
2023-03-10T10:36:06.021Z,98043.69
2023-03-10T10:38:57.913Z,98033.52
2023-03-10T10:41:44.659Z,98034.14
2023-03-10T10:44:40.939Z,98027.75
2023-03-10T10:47:47.834Z,98024.59
2023-03-10T10:50:36.153Z,98025.39
2023-03-10T10:53:26.190Z,98020.28
2023-03-10T10:56:20.276Z,98015.77
2023-03-10T10:59:28.592Z,98015.94
2023-03-10T11:02:32.915Z,98017.53
2023-03-10T11:05:23.960Z,98015.67
2023-03-10T11:08:27.103Z,98016.48
2023-03-10T11:11:48.146Z,98006.15
2023-03-10T11:14:57.653Z,98001.44
2023-03-10T11:17:57.480Z,98006.81
2023-03-10T11:20:56.411Z,97997.11
2023-03-10T11:24:01.292Z,97990.33
2023-03-10T11:27:41.821Z,97986.45
2023-03-10T11:30:35.646Z,97981.80
2023-03-10T11:33:38.738Z,97975.27
2023-03-10T11:36:56.589Z,97969.73
2023-03-10T11:40:42.074Z,97968.30
2023-03-10T11:43:47.674Z,97966.34
2023-03-10T11:46:44.540Z,97964.75
2023-03-10T11:49:39.272Z,97957.14
2023-03-10T11:52:30.956Z,97961.83
2023-03-10T11:55:22.676Z,97955.40
2023-03-10T11:58:24.336Z,97952.30
2023-03-10T12:01:18.096Z,97946.42
2023-03-10T12:04:17.209Z,97945.37
2023-03-10T12:07:24.783Z,97932.77
2023-03-10T12:10:15.334Z,97942.11
2023-03-10T12:13:05.705Z,97938.52
2023-03-10T12:15:59.771Z,97946.42
2023-03-10T12:18:47.205Z,97953.36
2023-03-10T12:21:36.417Z,97951.64
2023-03-10T12:24:47.525Z,97945.52
2023-03-10T12:28:11.776Z,97936.96
2023-03-10T12:31:10.709Z,97933.50
2023-03-10T12:34:29.254Z,97934.42
2023-03-10T12:37:22.762Z,97927.41
2023-03-10T12:40:51.555Z,97931.83
2023-03-10T12:44:25.758Z,97937.83
2023-03-10T12:47:34.106Z,97941.31
2023-03-10T12:50:24.088Z,97929.88
2023-03-10T12:53:36.027Z,97924.69
2023-03-10T12:56:40.174Z,97920.71
2023-03-10T12:59:37.034Z,97927.61
2023-03-10T13:02:34.068Z,97925.77
2023-03-10T13:05:26.052Z,97919.66
2023-03-10T13:08:22.613Z,97913.77
2023-03-10T13:11:48.662Z,97919.06
2023-03-10T13:14:40.974Z,97912.81
2023-03-10T13:17:30.558Z,97911.13
2023-03-10T13:20:19.413Z,97915.07
2023-03-10T13:23:06.140Z,97913.33
2023-03-10T13:25:58.595Z,97910.71
2023-03-10T13:28:55.845Z,97905.77
2023-03-10T13:31:52.670Z,97912.20
2023-03-10T13:34:39.170Z,97912.58
2023-03-10T13:37:26.462Z,97915.94
2023-03-10T13:40:16.668Z,97916.86
2023-03-10T13:43:05.796Z,97915.39
2023-03-10T13:46:00.394Z,97917.80
2023-03-10T13:48:49.659Z,97916.40
2023-03-10T13:51:37.641Z,97916.37
2023-03-10T13:54:37.727Z,97920.83
2023-03-10T13:57:32.994Z,97923.92
2023-03-10T14:00:24.844Z,97921.10
2023-03-10T14:03:15.202Z,97922.49
2023-03-10T14:06:15.452Z,97921.66
2023-03-10T14:09:23.026Z,97924.60
2023-03-10T14:12:12.635Z,97925.95
2023-03-10T14:15:21.278Z,97924.27
2023-03-10T14:18:08.131Z,97921.23
2023-03-10T14:20:54.880Z,97919.23
2023-03-10T14:23:43.701Z,97915.45
2023-03-10T14:26:30.813Z,97918.38
2023-03-10T14:29:17.876Z,97920.89
2023-03-10T14:32:08.980Z,97921.79
2023-03-10T14:34:56.094Z,97927.42
2023-03-10T14:37:43.801Z,97924.68
2023-03-10T14:40:39.901Z,97924.48
2023-03-10T14:43:29.430Z,97921.44
2023-03-10T14:46:16.908Z,97920.08
2023-03-10T14:49:15.143Z,97917.70
2023-03-10T14:52:05.972Z,97921.77
2023-03-10T14:54:52.525Z,97918.54
2023-03-10T14:57:40.597Z,97916.27
2023-03-10T15:00:27.584Z,97921.02
2023-03-10T15:03:14.329Z,97914.42
2023-03-10T15:06:06.565Z,97914.77
2023-03-10T15:08:53.860Z,97912.80
2023-03-10T15:11:41.681Z,97915.38
2023-03-10T15:14:28.436Z,97912.20
2023-03-10T15:17:15.190Z,97910.26
2023-03-10T15:20:08.426Z,97912.82
2023-03-10T15:22:55.378Z,97911.65
2023-03-10T15:25:43.689Z,97912.89
2023-03-10T15:28:32.446Z,97913.89
2023-03-10T15:31:19.468Z,97908.81
2023-03-10T15:34:07.337Z,97908.81
2023-03-10T15:36:53.960Z,97910.10
2023-03-10T15:39:41.813Z,97907.21
2023-03-10T15:42:28.945Z,97900.77
2023-03-10T15:45:21.588Z,97896.33
2023-03-10T15:48:10.389Z,97895.73
2023-03-10T15:50:59.512Z,97903.25
2023-03-10T15:53:46.499Z,97899.16
2023-03-10T15:56:38.418Z,97898.64
2023-03-10T15:59:30.475Z,97898.63
2023-03-10T16:02:17.555Z,97901.27
2023-03-10T16:05:06.131Z,97899.33
2023-03-10T16:07:55.959Z,97898.95
2023-03-10T16:10:52.091Z,97905.48
2023-03-10T16:13:38.365Z,97905.05
2023-03-10T16:16:26.510Z,97902.95
2023-03-10T16:19:13.295Z,97901.39
2023-03-10T16:22:00.191Z,97898.77
2023-03-10T16:24:46.676Z,97901.36
2023-03-10T16:27:34.961Z,97904.55
2023-03-10T16:30:23.897Z,97910.58
2023-03-10T16:33:10.476Z,97910.83
2023-03-10T16:36:02.105Z,97911.60
2023-03-10T16:38:50.074Z,97915.27
2023-03-10T16:41:36.671Z,97914.45
2023-03-10T16:44:23.285Z,97918.42
2023-03-10T16:47:09.703Z,97916.39
2023-03-10T16:49:56.588Z,97916.46
2023-03-10T16:52:43.130Z,97912.87
2023-03-10T16:55:29.885Z,97914.30
2023-03-10T16:58:16.710Z,97915.93
2023-03-10T17:01:04.885Z,97912.60
2023-03-10T17:03:53.384Z,97912.07
2023-03-10T17:06:40.299Z,97912.05
2023-03-10T17:09:27.130Z,97912.58
2023-03-10T17:12:13.570Z,97912.27
2023-03-10T17:15:00.739Z,97910.23
2023-03-10T17:17:47.464Z,97907.48
2023-03-10T17:20:39.258Z,97905.83
2023-03-10T17:23:26.354Z,97901.10
2023-03-10T17:26:13.944Z,97897.52
2023-03-10T17:29:00.940Z,97897.86
2023-03-10T17:31:51.888Z,97899.85
2023-03-10T17:34:42.059Z,97897.65
2023-03-10T17:37:31.276Z,97892.73
2023-03-10T17:40:21.636Z,97884.56
2023-03-10T17:43:23.402Z,97880.38
2023-03-10T17:46:27.584Z,97876.86
2023-03-10T17:49:18.222Z,97878.14
2023-03-10T17:52:05.759Z,97879.98
2023-03-10T17:54:54.606Z,97884.08
2023-03-10T17:57:43.522Z,97884.02
2023-03-10T18:00:30.381Z,97883.17
2023-03-10T18:03:17.711Z,97884.08
2023-03-10T18:06:35.258Z,97878.63
2023-03-10T18:09:23.025Z,97878.95
2023-03-10T18:12:10.791Z,97880.81
2023-03-10T18:14:57.269Z,97877.99
2023-03-10T18:17:43.968Z,97877.73
2023-03-10T18:20:30.762Z,97880.27
2023-03-10T18:23:17.721Z,97880.71
2023-03-10T18:26:13.712Z,97878.73
2023-03-10T18:29:00.873Z,97878.79
2023-03-10T18:31:54.052Z,97878.33
2023-03-10T18:34:41.671Z,97874.85
2023-03-10T18:37:34.482Z,97873.88
2023-03-10T18:40:21.043Z,97873.80
2023-03-10T18:43:09.110Z,97867.61
2023-03-10T18:45:56.584Z,97868.29
2023-03-10T18:48:42.912Z,97860.42
2023-03-10T18:51:30.957Z,97853.75
2023-03-10T18:54:17.898Z,97844.14
2023-03-10T18:57:04.811Z,97843.55
2023-03-10T18:59:51.997Z,97841.77
2023-03-10T19:02:41.391Z,97833.45
2023-03-10T19:05:28.883Z,97830.66
2023-03-10T19:08:15.644Z,97831.67
2023-03-10T19:11:02.635Z,97828.06
2023-03-10T19:13:52.783Z,97820.55
2023-03-10T19:16:40.286Z,97821.28
2023-03-10T19:19:51.967Z,97820.18
2023-03-10T19:22:42.163Z,97819.23
2023-03-10T19:25:29.001Z,97816.52
2023-03-10T19:28:16.310Z,97811.35
2023-03-10T19:31:11.176Z,97806.29
2023-03-10T19:33:58.159Z,97808.17
2023-03-10T19:36:49.959Z,97804.01
2023-03-10T19:39:47.236Z,97798.56
2023-03-10T19:42:41.645Z,97789.45
2023-03-10T19:45:35.854Z,97788.05
2023-03-10T19:48:24.110Z,97785.27
2023-03-10T19:51:24.088Z,97784.55
2023-03-10T19:54:11.877Z,97784.20
2023-03-10T19:56:58.957Z,97783.15
2023-03-10T19:59:46.470Z,97782.29
2023-03-10T20:02:33.179Z,97783.66
2023-03-10T20:05:21.297Z,97788.83
2023-03-10T20:08:08.764Z,97789.76
2023-03-10T20:11:01.740Z,97796.49
2023-03-10T20:13:48.616Z,97789.73
2023-03-10T20:16:35.033Z,97785.86
2023-03-10T20:19:32.566Z,97780.83
2023-03-10T20:22:19.959Z,97770.52
2023-03-10T20:25:27.824Z,97765.77
2023-03-10T20:28:16.635Z,97761.98
2023-03-10T20:31:03.999Z,97766.74
2023-03-10T20:35:48.654Z,97760.09
2023-03-10T20:38:38.483Z,97754.95
2023-03-10T20:41:23.936Z,97754.84
2023-03-10T20:44:19.830Z,97750.55
2023-03-10T20:47:05.632Z,97748.27
2023-03-10T20:49:52.140Z,97752.29
2023-03-10T20:52:41.496Z,97752.20
2023-03-10T20:55:29.509Z,97752.90
2023-03-10T20:58:16.865Z,97755.30
2023-03-10T21:01:03.159Z,97752.34
2023-03-10T21:03:48.630Z,97750.52
2023-03-10T21:06:35.233Z,97741.39
2023-03-10T21:09:20.518Z,97733.20
2023-03-10T21:12:06.069Z,97725.41
2023-03-10T21:14:51.200Z,97726.02
2023-03-10T21:17:36.780Z,97716.24
2023-03-10T21:20:23.192Z,97710.77
2023-03-10T21:23:08.448Z,97707.25
2023-03-10T21:25:54.028Z,97702.68
2023-03-10T21:28:40.720Z,97697.45
2023-03-10T21:31:28.004Z,97694.12
2023-03-10T21:34:13.962Z,97689.42
2023-03-10T21:36:59.667Z,97688.59
2023-03-10T21:39:44.910Z,97683.83
2023-03-10T21:42:29.726Z,97673.40
2023-03-10T21:45:20.076Z,97667.34
2023-03-10T21:48:06.052Z,97660.62
2023-03-10T21:50:51.335Z,97655.81
2023-03-10T21:53:36.905Z,97654.27
2023-03-10T21:56:25.362Z,97652.24
2023-03-10T21:59:12.300Z,97648.80
2023-03-10T22:01:57.740Z,97643.61
2023-03-10T22:04:43.483Z,97639.13
2023-03-10T22:07:28.805Z,97633.64
2023-03-10T22:10:15.068Z,97630.52
2023-03-10T22:13:01.928Z,97626.77
2023-03-10T22:15:47.245Z,97624.05
2023-03-10T22:18:33.517Z,97620.39
2023-03-10T22:21:21.504Z,97613.79
2023-03-10T22:24:06.947Z,97611.20
2023-03-10T22:26:53.343Z,97608.23
2023-03-10T22:29:39.216Z,97606.92
2023-03-10T22:32:25.322Z,97601.88
2023-03-10T22:35:12.597Z,97606.92
2023-03-10T22:37:59.151Z,97598.46
2023-03-10T22:40:44.290Z,97591.26
2023-03-10T22:43:29.334Z,97589.35
2023-03-10T22:46:16.433Z,97585.69
2023-03-10T22:49:01.559Z,97584.55
2023-03-10T22:51:46.901Z,97581.16
2023-03-10T22:54:32.904Z,97581.93
2023-03-10T22:57:17.790Z,97582.45
2023-03-10T23:00:04.778Z,97584.73
2023-03-10T23:02:51.436Z,97575.13
2023-03-10T23:05:37.539Z,97571.18
2023-03-10T23:08:22.689Z,97571.09
2023-03-10T23:11:14.764Z,97572.38
2023-03-10T23:14:03.443Z,97581.30
2023-03-10T23:16:48.410Z,97582.14
2023-03-10T23:19:35.210Z,97578.29
2023-03-10T23:22:25.424Z,97584.59
2023-03-10T23:25:41.730Z,97589.91
2023-03-10T23:28:26.916Z,97587.33
2023-03-10T23:31:16.439Z,97582.83
2023-03-10T23:34:03.184Z,97577.08
2023-03-10T23:36:48.418Z,97571.56
2023-03-10T23:39:33.764Z,97573.27
2023-03-10T23:42:19.282Z,97576.34
2023-03-10T23:45:06.367Z,97568.91
2023-03-10T23:47:52.210Z,97569.81
2023-03-10T23:50:41.277Z,97566.98
2023-03-10T23:53:28.254Z,97569.03
2023-03-10T23:56:13.649Z,97565.15
2023-03-10T23:58:58.912Z,97564.44
